Keene Valley, NY (12943)

12:24 AM EST on February 25, 2017 (GMT -0500)
MMVAN6 | | Change Station
Active Advisory: Areal Flood Watch Active Notice: Areal Flood Watch

Elev 1997 ft 44.20 °N, 73.90 °W | Updated 10 hours ago

Overcast
Overcast
49.0 °F
Feels Like 48 °F
N
4.0
Wind Variable Wind from NNE
Gusts 13.0 mph

Today
High -- | Low -- °F
--% Chance of Precip.
Yesterday
High -- | Low -- °F
Precip. -- in
Pressure 29.72 in
Visibility 10.0 miles
Clouds Clear
Windchill 48 °F
Dew Point 46 °F
Humidity 91%
Rainfall 0.17 in
Snow Depth Not available.
6:38 AM 5:38 PM
Waning Crescent, 2% visible
METAR KSLK 250451Z AUTO 00000KT 10SM CLR 01/01 A2968 RMK AO2 SLP062 T00060006 400831006
Pressure 29.72 in
Visibility 10.0 miles
Clouds Clear
Windchill 48 °F
Dew Point 46 °F
Humidity 91%
Rainfall 0.17 in
Snow Depth Not available.
6:38 AM 5:38 PM
Waning Crescent, 2% visible
METAR KSLK 250451Z AUTO 00000KT 10SM CLR 01/01 A2968 RMK AO2 SLP062 T00060006 400831006

Get Your Daily Forecast Email!

Thanks for signing up!

Be on the lookout for a verification email in your inbox.

You'll start receiving the daily forecast at 8 AM.

×

10-Day Weather Forecast

Almanac

Astronomy

Feb. 25, 2017 Rise Set
Actual Time
Civil Twilight
Nautical Twilight
Astronomical Twilight
Moon
Length of Visible Light
Length of Day
Tomorrow will be .
, % of the Moon is Illuminated

Today's Extremes

State Highs State Lows

Community

WunderPhotos

Upload Photos

1,962,540 photos uploaded!

WunderBlog® & News

Nearby

Air Quality

  Air Quality AQ Index Pollutant
Not available.

Snow Depth

Station Depth Elevation

Earthquake Activity

City Distance Mag. Time & Date
Minimum magnitude displayed is 2.5.

Coastal Water Temperatures

Place Temperature

Stations

Nearby Weather Stations

Station Location Temp. Windchill Dew Point Humidity Wind Precip. Elev Updated Type
                   

Watches & Warnings

Areal Flood Watch
Issued: 3:23 PM EST Feb. 24, 2017 – National Weather Service

... Flood Watch remains in effect from 7 PM EST this evening
through Sunday evening...

The Flood Watch continues for

* all of northern New York, central and northern Vermont.

* From 7 PM EST this evening through Sunday evening.

* Minor to locally moderate flooding is possible due to the
combination of rapid snow melt and rainfall amounts between a
half and one inch. The flood threat will be highest on rivers
and streams where ice breakup occurs, primarily across northeast New
York and northern Vermont, especially north of U.S. Route 2.
Note that localized ice jam flooding could begin as early as
this evening, while the bulk of any freshwater flooding is
expected Saturday afternoon into Saturday night.

Precautionary/preparedness actions...

A Flood Watch means there is a potential for flooding based on
current forecasts.

You should monitor later forecasts and be alert for possible
flood warnings. Those living in areas prone to flooding should be
prepared to take action should flooding develop.



Jmg